Time;durP1;ratioP1;P1;durP2;ratioP2;P2;SDS_P1;SDS_P2;PMS_P1;PMS_P2;Temp;Humidity;BMP_temperature;BMP_pressure;BME280_temperature;BME280_humidity;BME280_pressure;Samples;Min_cycle;Max_cycle;Signal;HPM_P1;HPM_P2
2022/04/20 00:01:48;;;;;;;3.60;2.40;;;;;;;7.82;53.35;100282.66;5077960;28;20055;-79
2022/04/20 00:04:15;;;;;;;4.35;2.55;;;;;;;7.76;52.71;100286.63;5077451;28;20058;-78
2022/04/20 00:06:43;;;;;;;4.57;2.95;;;;;;;7.70;52.98;100281.16;5077915;28;20056;-79
2022/04/20 00:09:10;;;;;;;8.00;3.22;;;;;;;7.67;53.70;100292.84;5077018;28;20352;-77
2022/04/20 00:11:37;;;;;;;3.83;2.80;;;;;;;7.66;53.91;100282.06;5075782;28;20049;-78
2022/04/20 00:14:05;;;;;;;5.70;3.20;;;;;;;7.62;53.47;100290.16;5078442;28;20049;-78
2022/04/20 00:16:34;;;;;;;3.83;2.72;;;;;;;7.59;53.63;100287.97;5077325;28;20080;-77
2022/04/20 00:19:01;;;;;;;4.03;2.53;;;;;;;7.53;53.93;100291.94;5077379;28;20059;-78
2022/04/20 00:21:28;;;;;;;4.18;2.92;;;;;;;7.46;53.89;100291.50;5077335;28;20057;-78
2022/04/20 00:23:55;;;;;;;7.00;3.10;;;;;;;7.40;54.42;100290.75;5077162;28;20059;-78
2022/04/20 00:26:23;;;;;;;3.97;2.72;;;;;;;7.37;54.29;100290.50;5077857;28;20048;-78
2022/04/20 00:28:53;;;;;;;4.25;2.60;;;;;;;7.34;54.65;100289.16;5077269;28;20055;-78
2022/04/20 00:31:21;;;;;;;5.60;2.88;;;;;;;7.30;54.73;100293.63;5082862;28;20063;-78
2022/04/20 00:33:49;;;;;;;4.07;3.00;;;;;;;7.25;55.55;100297.31;5076511;28;20049;-78
2022/04/20 00:36:17;;;;;;;3.90;2.72;;;;;;;7.26;54.47;100298.94;5075943;28;20048;-78
2022/04/20 00:38:44;;;;;;;3.53;2.58;;;;;;;7.21;55.05;100298.19;5057971;28;20056;-78
2022/04/20 00:41:12;;;;;;;5.00;2.90;;;;;;;7.21;55.04;100304.56;5063850;28;20119;-78
2022/04/20 00:43:40;;;;;;;3.38;2.45;;;;;;;7.17;55.24;100299.91;5076842;28;20060;-78
2022/04/20 00:46:08;;;;;;;4.25;2.65;;;;;;;7.15;55.42;100297.44;5076655;28;20497;-78
2022/04/20 00:48:38;;;;;;;3.20;2.42;;;;;;;7.11;55.05;100299.97;5076993;28;20366;-78
2022/04/20 00:51:06;;;;;;;2.85;2.20;;;;;;;7.08;54.68;100305.28;5076992;28;20056;-78
2022/04/20 00:53:34;;;;;;;5.07;2.80;;;;;;;7.03;54.97;100300.59;5077732;28;20053;-78
2022/04/20 00:56:01;;;;;;;4.28;2.50;;;;;;;6.99;54.74;100304.25;5076628;28;20048;-78
2022/04/20 00:58:28;;;;;;;4.30;2.60;;;;;;;6.96;55.23;100304.88;5077915;28;20041;-78
2022/04/20 01:00:55;;;;;;;4.18;2.50;;;;;;;6.90;55.17;100304.09;5075910;28;20421;-78
2022/04/20 01:03:23;;;;;;;4.43;2.55;;;;;;;6.88;55.51;100306.31;5076151;28;20049;-78
2022/04/20 01:05:50;;;;;;;5.22;2.65;;;;;;;6.84;54.98;100303.31;5075894;28;20049;-78
2022/04/20 01:08:19;;;;;;;3.88;2.42;;;;;;;6.83;55.13;100312.75;5076418;28;20061;-78
2022/04/20 01:10:47;;;;;;;3.70;2.33;;;;;;;6.84;55.35;100303.31;5076541;28;20512;-78
2022/04/20 01:13:14;;;;;;;3.72;2.10;;;;;;;6.80;55.87;100310.56;5076128;28;20052;-78
2022/04/20 01:15:42;;;;;;;5.57;2.65;;;;;;;6.78;55.83;100309.19;5076409;28;20055;-78
2022/04/20 01:18:13;;;;;;;4.13;2.80;;;;;;;6.78;56.21;100309.19;5076112;28;20408;-78
2022/04/20 01:20:42;;;;;;;4.70;2.70;;;;;;;6.73;55.43;100310.09;5076265;28;20052;-78
2022/04/20 01:23:10;;;;;;;5.17;2.80;;;;;;;6.73;56.04;100307.31;5076082;28;20057;-78
2022/04/20 01:25:38;;;;;;;4.53;2.80;;;;;;;6.69;56.06;100306.25;5075862;28;20470;-78
2022/04/20 01:28:08;;;;;;;3.13;2.33;;;;;;;6.66;56.89;100299.38;5066680;28;20460;-78
2022/04/20 01:30:36;;;;;;;4.45;2.60;;;;;;;6.62;56.24;100301.06;5056631;28;20049;-78
2022/04/20 01:33:04;;;;;;;3.33;2.75;;;;;;;6.58;56.89;100304.72;5056033;28;20073;-78
2022/04/20 01:35:32;;;;;;;3.38;2.50;;;;;;;6.58;56.61;100297.22;5057148;28;20076;-78
2022/04/20 01:38:01;;;;;;;3.25;2.42;;;;;;;6.55;57.11;100300.59;5069461;28;20053;-78
2022/04/20 01:40:28;;;;;;;3.07;2.47;;;;;;;6.52;57.01;100292.88;5076118;28;20060;-78
2022/04/20 01:42:55;;;;;;;4.88;2.75;;;;;;;6.50;57.46;100295.09;5077188;28;20466;-78
2022/04/20 01:45:23;;;;;;;4.45;2.75;;;;;;;6.45;57.33;100301.50;5076548;28;20048;-78
2022/04/20 01:47:51;;;;;;;8.98;3.22;;;;;;;6.42;57.65;100299.31;5076733;28;20401;-78
2022/04/20 01:50:18;;;;;;;4.70;3.05;;;;;;;6.39;57.50;100299.91;5073991;28;20048;-77
2022/04/20 01:52:49;;;;;;;4.07;2.42;;;;;;;6.39;58.02;100297.13;5072647;28;20053;-77
2022/04/20 01:55:18;;;;;;;4.05;2.70;;;;;;;6.40;57.58;100304.31;5073105;28;20527;-77
2022/04/20 01:57:46;;;;;;;4.95;2.72;;;;;;;6.40;57.11;100307.06;5074027;28;20052;-77
2022/04/20 02:00:16;;;;;;;2.95;2.38;;;;;;;6.39;56.89;100308.22;5073602;28;20041;-78
2022/04/20 02:02:42;;;;;;;5.22;2.92;;;;;;;6.36;56.62;100306.00;5073528;28;20056;-78
2022/04/20 02:05:15;;;;;;;3.25;2.45;;;;;;;6.34;57.14;100308.25;5056594;28;20486;-78
2022/04/20 02:07:44;;;;;;;4.53;2.63;;;;;;;6.30;56.64;100299.72;5055998;28;20052;-78
2022/04/20 02:10:11;;;;;;;4.13;2.80;;;;;;;6.25;56.70;100302.50;5057547;28;20057;-78
2022/04/20 02:12:39;;;;;;;4.30;2.80;;;;;;;6.23;57.07;100298.38;5059601;28;20064;-78
2022/04/20 02:15:08;;;;;;;5.97;2.80;;;;;;;6.21;57.20;100298.66;5073268;28;20052;-78
2022/04/20 02:17:37;;;;;;;5.03;3.10;;;;;;;6.18;57.08;100306.75;5079921;28;20413;-78
2022/04/20 02:20:05;;;;;;;3.65;2.88;;;;;;;6.14;57.10;100300.13;5078934;28;20044;-78
2022/04/20 02:22:32;;;;;;;4.03;2.92;;;;;;;6.12;57.87;100305.13;5080212;28;20052;-78
2022/04/20 02:25:00;;;;;;;4.45;2.70;;;;;;;6.09;57.32;100303.78;5079297;28;20055;-78
2022/04/20 02:27:27;;;;;;;3.10;2.50;;;;;;;6.05;57.46;100306.28;5079494;28;20057;-78
2022/04/20 02:29:56;;;;;;;3.83;2.95;;;;;;;6.04;57.60;100301.84;5080370;28;20044;-78
2022/04/20 02:32:23;;;;;;;5.47;3.43;;;;;;;6.01;57.93;100296.91;5080366;28;20060;-78
2022/04/20 02:34:51;;;;;;;4.22;2.70;;;;;;;5.99;58.36;100301.91;5080687;28;20508;-78
2022/04/20 02:37:18;;;;;;;5.13;3.03;;;;;;;5.96;58.19;100302.47;5079968;28;20053;-78
2022/04/20 02:39:46;;;;;;;4.03;3.00;;;;;;;5.93;58.34;100305.78;5081004;28;20052;-78
2022/04/20 02:42:13;;;;;;;3.55;2.70;;;;;;;5.92;58.13;100309.63;5080778;28;20056;-78
2022/04/20 02:44:41;;;;;;;3.70;2.97;;;;;;;5.87;58.49;100309.69;5078281;28;20053;-78
2022/04/20 02:47:10;;;;;;;3.88;2.70;;;;;;;5.86;58.88;100308.06;5060257;28;20052;-78
2022/04/20 02:49:37;;;;;;;4.57;3.00;;;;;;;5.81;58.75;100311.66;5060065;28;20072;-78
2022/04/20 02:52:06;;;;;;;4.82;2.95;;;;;;;5.79;58.78;100315.81;5079559;28;20505;-78
2022/04/20 02:54:33;;;;;;;4.38;3.30;;;;;;;5.76;59.02;100317.22;5080286;28;20060;-78
2022/04/20 02:57:01;;;;;;;3.90;2.95;;;;;;;5.73;59.18;100319.72;5080170;28;20049;-78
2022/04/20 02:59:28;;;;;;;4.75;3.03;;;;;;;5.67;59.55;100321.72;5079779;28;20052;-78
2022/04/20 03:01:55;;;;;;;3.88;2.83;;;;;;;5.66;59.43;100329.16;5078996;28;20045;-78
2022/04/20 03:04:24;;;;;;;4.53;3.00;;;;;;;5.64;59.74;100327.81;5078698;28;20056;-78
2022/04/20 03:06:52;;;;;;;5.77;3.30;;;;;;;5.62;59.47;100316.22;5080004;28;20052;-79
2022/04/20 03:09:19;;;;;;;4.38;2.88;;;;;;;5.58;59.48;100317.88;5079751;28;20045;-78
2022/04/20 03:11:46;;;;;;;4.65;2.88;;;;;;;5.55;59.67;100324.81;5079707;28;20048;-78
2022/04/20 03:14:14;;;;;;;5.10;2.90;;;;;;;5.54;59.50;100314.84;5079778;28;20052;-78
2022/04/20 03:16:42;;;;;;;5.30;3.00;;;;;;;5.47;59.52;100326.22;5079535;28;20055;-78
2022/04/20 03:19:09;;;;;;;4.47;2.85;;;;;;;5.42;59.88;100325.44;5078559;28;20053;-78
2022/04/20 03:21:37;;;;;;;4.40;2.92;;;;;;;5.41;59.63;100327.34;5079675;28;20055;-78
2022/04/20 03:24:06;;;;;;;5.28;3.25;;;;;;;5.40;59.72;100324.91;5079787;28;20163;-79
2022/04/20 03:26:33;;;;;;;4.38;3.10;;;;;;;5.38;59.72;100324.34;5080250;28;20048;-78
2022/04/20 03:29:00;;;;;;;4.80;3.17;;;;;;;5.38;59.93;100333.47;5080057;28;20052;-79
2022/04/20 03:31:28;;;;;;;4.78;3.55;;;;;;;5.36;59.81;100340.38;5077920;28;20060;-78
2022/04/20 03:33:56;;;;;;;6.45;4.60;;;;;;;5.33;60.08;100340.94;5079910;28;20029;-79
2022/04/20 03:36:24;;;;;;;6.82;3.55;;;;;;;5.31;59.99;100343.16;5079951;28;20048;-79
2022/04/20 03:38:52;;;;;;;5.13;3.40;;;;;;;5.28;60.30;100339.84;5080236;28;20056;-78
2022/04/20 03:41:22;;;;;;;3.95;3.00;;;;;;;5.29;60.58;100343.44;5079465;28;20048;-79
2022/04/20 03:43:49;;;;;;;4.03;3.10;;;;;;;5.25;60.39;100354.22;5079444;28;20055;-78
2022/04/20 03:46:17;;;;;;;5.80;3.53;;;;;;;5.26;60.53;100350.34;5079176;28;20049;-78
2022/04/20 03:48:45;;;;;;;4.40;3.30;;;;;;;5.23;60.08;100353.69;5079602;28;20251;-78
2022/04/20 03:51:12;;;;;;;4.90;3.20;;;;;;;5.23;60.78;100355.63;5079576;28;20052;-78
2022/04/20 03:53:40;;;;;;;5.13;3.10;;;;;;;5.20;60.41;100358.94;5078829;28;20579;-78
2022/04/20 03:56:08;;;;;;;3.80;2.90;;;;;;;5.17;60.60;100349.28;5079654;28;20055;-79
2022/04/20 03:58:36;;;;;;;6.28;2.97;;;;;;;5.17;60.52;100343.75;5079112;28;20059;-79
2022/04/20 04:01:03;;;;;;;4.97;3.38;;;;;;;5.18;60.50;100350.09;5078717;28;20055;-79
2022/04/20 04:03:31;;;;;;;5.20;3.17;;;;;;;5.18;60.90;100356.44;5078773;28;20049;-79
2022/04/20 04:05:58;;;;;;;4.65;3.00;;;;;;;5.15;61.02;100353.44;5078023;28;20063;-79
2022/04/20 04:08:25;;;;;;;5.15;3.33;;;;;;;5.16;60.96;100347.63;5078781;28;20049;-79
2022/04/20 04:10:52;;;;;;;5.43;3.20;;;;;;;5.16;61.19;100352.31;5079446;28;20052;-79
2022/04/20 04:13:25;;;;;;;4.25;2.85;;;;;;;5.16;61.00;100352.31;5079052;28;20059;-79
2022/04/20 04:15:52;;;;;;;4.70;2.90;;;;;;;5.16;60.86;100352.31;5079248;28;20059;-79
2022/04/20 04:18:19;;;;;;;4.72;3.33;;;;;;;5.16;61.29;100352.31;5078697;28;20059;-79
2022/04/20 04:20:46;;;;;;;3.85;3.00;;;;;;;5.15;61.20;100345.97;5078506;28;20059;-78
2022/04/20 04:23:14;;;;;;;4.57;3.10;;;;;;;5.14;61.02;100360.06;5070118;28;20048;-78
2022/04/20 04:25:41;;;;;;;5.25;3.03;;;;;;;5.15;61.06;100357.03;5055632;28;20045;-78
2022/04/20 04:28:08;;;;;;;4.68;2.97;;;;;;;5.16;61.00;100361.41;5055477;28;20053;-78
2022/04/20 04:30:37;;;;;;;6.75;4.05;;;;;;;5.18;62.02;100356.44;5054386;28;20056;-78
2022/04/20 04:33:04;;;;;;;5.15;3.60;;;;;;;5.23;62.96;100363.91;5057449;28;20466;-78
2022/04/20 04:35:34;;;;;;;6.93;3.42;;;;;;;5.31;62.70;100366.06;5058476;28;20060;-78
2022/04/20 04:38:02;;;;;;;5.30;3.08;;;;;;;5.40;61.71;100364.38;5074299;28;20055;-79
2022/04/20 04:40:29;;;;;;;5.13;3.20;;;;;;;5.48;60.71;100366.56;5079174;28;20048;-79
2022/04/20 04:42:56;;;;;;;4.72;2.95;;;;;;;5.39;60.73;100368.25;5077516;28;20053;-78
2022/04/20 04:50:55;;;;;;;3.80;2.75;;;;;;;5.52;59.74;100380.63;5061949;28;20064;-78
2022/04/20 04:53:22;;;;;;;3.60;2.60;;;;;;;5.51;59.72;100384.50;5055342;28;20063;-78
2022/04/20 04:55:49;;;;;;;4.60;3.38;;;;;;;5.50;59.65;100377.31;5074598;28;20397;-78
2022/04/20 04:58:17;;;;;;;5.28;3.92;;;;;;;5.47;59.63;100386.19;5078527;28;20056;-78
2022/04/20 05:00:45;;;;;;;4.45;3.03;;;;;;;5.47;60.42;100380.66;5075784;28;20513;-77
2022/04/20 05:03:14;;;;;;;4.45;3.25;;;;;;;5.47;59.94;100386.19;5075686;28;20044;-77
2022/04/20 05:05:41;;;;;;;5.07;2.78;;;;;;;5.44;60.12;100373.75;5076859;28;20053;-78
2022/04/20 05:08:09;;;;;;;3.30;2.50;;;;;;;5.46;60.05;100379.00;5077909;28;20072;-78
2022/04/20 05:10:36;;;;;;;4.32;3.47;;;;;;;5.50;60.27;100385.59;5076597;28;20059;-79
2022/04/20 05:13:04;;;;;;;5.60;3.50;;;;;;;5.53;59.88;100384.22;5077285;28;20056;-78
2022/04/20 05:15:32;;;;;;;6.18;3.00;;;;;;;5.53;59.65;100387.81;5077289;28;20055;-78
2022/04/20 05:18:00;;;;;;;4.65;3.10;;;;;;;5.56;60.15;100383.66;5077889;28;20139;-79
2022/04/20 05:20:29;;;;;;;4.82;2.80;;;;;;;5.59;60.33;100383.91;5070973;28;20053;-79
2022/04/20 05:22:56;;;;;;;6.03;3.15;;;;;;;5.61;60.15;100390.00;5058746;28;20049;-79
2022/04/20 05:25:24;;;;;;;5.60;3.10;;;;;;;5.69;60.36;100389.41;5058364;28;20049;-79
2022/04/20 05:27:51;;;;;;;4.43;2.83;;;;;;;5.77;60.35;100387.97;5058989;28;20057;-79
2022/04/20 05:30:18;;;;;;;4.35;2.83;;;;;;;5.80;60.01;100386.59;5057356;28;20056;-78
2022/04/20 05:32:45;;;;;;;6.80;3.60;;;;;;;5.87;59.79;100395.38;5058895;28;20053;-79
2022/04/20 05:35:13;;;;;;;4.82;2.90;;;;;;;5.95;59.88;100389.28;5058002;28;20052;-78
2022/04/20 05:43:12;;;;;;;3.85;2.58;;;;;;;6.15;59.53;100384.72;5082611;28;20056;-78
2022/04/20 05:45:39;;;;;;;7.75;3.47;;;;;;;6.16;59.50;100386.41;5079141;28;20060;-78
2022/04/20 05:48:07;;;;;;;5.93;2.88;;;;;;;6.21;59.64;100381.63;5063314;28;20053;-79
2022/04/20 05:50:36;;;;;;;4.70;3.40;;;;;;;6.36;58.88;100383.47;5062546;28;20491;-79
2022/04/20 05:53:05;;;;;;;6.03;3.47;;;;;;;6.45;58.37;100390.03;5082414;28;20055;-79
2022/04/20 05:55:32;;;;;;;6.63;3.63;;;;;;;6.53;58.34;100382.22;5082057;28;20404;-79
2022/04/20 05:57:59;;;;;;;5.63;3.63;;;;;;;6.63;57.70;100390.44;5081203;28;20476;-79
2022/04/20 06:00:26;;;;;;;7.47;5.00;;;;;;;6.74;57.57;100386.50;5081818;28;20056;-79
2022/04/20 06:02:55;;;;;;;5.50;4.20;;;;;;;6.81;57.71;100381.44;5081664;28;20071;-79
2022/04/20 06:05:24;;;;;;;7.95;4.63;;;;;;;6.92;56.71;100382.16;5081507;28;20056;-79
2022/04/20 06:07:51;;;;;;;5.85;4.43;;;;;;;7.01;56.67;100376.78;5082062;28;20067;-79
2022/04/20 06:10:20;;;;;;;8.15;4.78;;;;;;;7.10;56.34;100375.06;5081394;28;20056;-79
2022/04/20 06:12:48;;;;;;;7.20;4.60;;;;;;;7.20;55.98;100372.19;5080588;28;20052;-79
2022/04/20 06:15:15;;;;;;;8.00;5.07;;;;;;;7.28;56.00;100379.00;5081280;28;20144;-79
2022/04/20 06:17:43;;;;;;;7.50;4.80;;;;;;;7.39;55.49;100376.94;5081524;28;20060;-79
2022/04/20 06:20:11;;;;;;;8.45;5.18;;;;;;;7.45;55.85;100376.56;5082150;28;20056;-79
2022/04/20 06:22:38;;;;;;;5.53;4.07;;;;;;;7.55;56.17;100363.72;5081865;28;20049;-79
2022/04/20 06:25:06;;;;;;;7.68;4.65;;;;;;;7.67;55.57;100376.03;5082280;28;20060;-79
2022/04/20 06:27:36;;;;;;;7.10;4.35;;;;;;;7.77;54.64;100374.22;5082550;28;20587;-79
2022/04/20 06:30:07;;;;;;;6.75;5.07;;;;;;;7.92;54.35;100371.25;5083088;28;20048;-79
2022/04/20 06:32:36;;;;;;;6.35;4.97;;;;;;;8.01;53.72;100375.00;5075967;28;20052;-79
2022/04/20 06:35:04;;;;;;;7.40;4.80;;;;;;;8.13;54.15;100375.38;5058868;28;20060;-78
2022/04/20 06:37:31;;;;;;;7.65;4.80;;;;;;;8.25;54.26;100371.31;5071469;28;20098;-78
2022/04/20 06:39:58;;;;;;;5.72;4.32;;;;;;;8.37;54.00;100368.91;5081960;28;20052;-78
2022/04/20 06:42:26;;;;;;;6.90;5.15;;;;;;;8.50;53.56;100359.84;5078700;28;20048;-78
2022/04/20 06:44:55;;;;;;;6.20;4.90;;;;;;;8.63;53.09;100365.72;5041638;28;20059;-78
2022/04/20 06:47:22;;;;;;;5.50;4.22;;;;;;;8.75;52.34;100360.50;5059155;28;20057;-78
2022/04/20 06:49:49;;;;;;;6.85;4.95;;;;;;;8.90;51.94;100368.59;5078968;28;20064;-78
2022/04/20 07:00:32;;;;;;;6.88;4.80;;;;;;;9.38;54.19;100361.81;5065578;28;20056;-78
2022/04/20 07:03:00;;;;;;;7.28;5.20;;;;;;;9.49;54.33;100368.84;5058770;28;20053;-77
2022/04/20 07:05:27;;;;;;;7.85;5.00;;;;;;;9.63;53.67;100359.66;5058926;28;20049;-78
2022/04/20 07:07:55;;;;;;;6.70;5.28;;;;;;;9.73;54.14;100357.47;5059729;28;20053;-78
2022/04/20 07:10:22;;;;;;;6.28;5.07;;;;;;;9.91;53.48;100357.63;5076921;28;20059;-78
2022/04/20 07:12:51;;;;;;;8.13;5.30;;;;;;;10.07;53.24;100358.94;5077528;28;20052;-78
2022/04/20 07:15:19;;;;;;;8.75;5.53;;;;;;;10.22;53.33;100356.94;5077308;28;20053;-78
2022/04/20 07:17:47;;;;;;;8.00;5.93;;;;;;;10.41;53.12;100348.41;5078222;28;20416;-78
2022/04/20 07:20:17;;;;;;;8.20;5.73;;;;;;;10.61;52.95;100353.50;5078305;28;20060;-78
2022/04/20 07:22:44;;;;;;;7.25;5.30;;;;;;;10.81;52.42;100352.13;5078937;28;20052;-78
2022/04/20 07:25:12;;;;;;;6.97;4.90;;;;;;;11.24;51.77;100351.53;5078817;28;20065;-78
2022/04/20 07:27:39;;;;;;;10.45;5.45;;;;;;;12.13;49.39;100352.22;5079840;28;20385;-78
2022/04/20 07:30:10;;;;;;;7.93;5.78;;;;;;;13.49;47.27;100348.16;5079887;28;20058;-78
2022/04/20 07:32:37;;;;;;;7.35;5.15;;;;;;;14.87;44.57;100345.44;5079437;28;20063;-78
2022/04/20 07:35:09;;;;;;;6.53;4.90;;;;;;;16.40;41.41;100348.78;5079275;28;20425;-78
2022/04/20 07:37:39;;;;;;;5.85;4.47;;;;;;;17.94;38.73;100348.38;5079513;28;20054;-79
2022/04/20 07:40:07;;;;;;;5.90;4.28;;;;;;;19.43;35.87;100341.28;5080521;28;20413;-78
2022/04/20 07:42:36;;;;;;;5.13;4.38;;;;;;;20.80;32.88;100343.22;5079759;28;20052;-78
2022/04/20 07:45:04;;;;;;;6.70;4.40;;;;;;;21.88;31.52;100331.66;5078539;28;20064;-77
2022/04/20 07:47:32;;;;;;;6.50;4.22;;;;;;;23.02;29.52;100341.09;5077010;28;20056;-77
2022/04/20 07:52:47;;;;;;;4.80;3.75;;;;;;;25.14;25.59;100334.94;5078928;28;20429;-78
2022/04/20 07:55:16;;;;;;;5.35;3.75;;;;;;;25.93;24.40;100337.97;5078180;28;20056;-78
2022/04/20 07:57:43;;;;;;;;;;;;;;;26.38;25.15;100342.78;5080120;28;20064;-79
2022/04/20 08:00:12;;;;;;;6.32;3.78;;;;;;;27.34;23.23;100346.41;5078952;28;19924;-77
2022/04/20 08:02:40;;;;;;;4.47;3.38;;;;;;;28.28;21.39;100345.53;5078849;28;20469;-77
2022/04/20 08:05:11;;;;;;;7.53;3.57;;;;;;;29.16;20.67;100341.22;5079062;28;20150;-78
2022/04/20 08:07:39;;;;;;;4.35;3.38;;;;;;;29.74;19.59;100334.91;5078441;28;20473;-77
2022/04/20 08:10:10;;;;;;;5.10;3.22;;;;;;;30.39;19.46;100333.16;5076646;28;20056;-78
2022/04/20 08:12:39;;;;;;;5.60;3.50;;;;;;;30.84;17.67;100338.75;5078345;28;20060;-79
2022/04/20 08:15:07;;;;;;;5.28;2.80;;;;;;;31.55;17.06;100344.31;5078714;28;20055;-79
2022/04/20 08:17:35;;;;;;;4.97;3.00;;;;;;;31.70;15.74;100329.44;5078419;28;20481;-77
2022/04/20 08:20:04;;;;;;;3.00;2.67;;;;;;;32.53;14.84;100331.00;5077557;28;20060;-78
2022/04/20 08:22:32;;;;;;;3.17;2.40;;;;;;;32.72;14.21;100326.16;5077318;28;20048;-77
2022/04/20 08:25:02;;;;;;;3.92;2.50;;;;;;;32.88;14.01;100332.94;5077400;28;20052;-78
2022/04/20 08:27:31;;;;;;;2.97;2.63;;;;;;;33.11;13.96;100329.56;5077493;28;20048;-78
2022/04/20 08:29:58;;;;;;;3.38;2.95;;;;;;;33.16;14.15;100331.84;5077429;28;20493;-78
2022/04/20 08:32:26;;;;;;;4.18;2.65;;;;;;;33.48;14.46;100326.00;5077480;28;20493;-78
2022/04/20 08:34:53;;;;;;;4.03;2.50;;;;;;;34.30;13.79;100324.53;5077598;28;20053;-79
2022/04/20 08:37:22;;;;;;;5.05;2.30;;;;;;;34.35;13.25;100327.53;5076560;28;20056;-79
2022/04/20 08:39:49;;;;;;;2.90;2.03;;;;;;;35.22;12.06;100327.22;5077047;28;20404;-79
2022/04/20 08:42:20;;;;;;;5.30;2.58;;;;;;;35.53;12.51;100326.88;5077732;28;20053;-78
2022/04/20 08:44:51;;;;;;;3.67;2.60;;;;;;;35.96;12.30;100321.75;5083699;28;20048;-78
2022/04/20 08:47:21;;;;;;;4.90;2.45;;;;;;;35.94;11.79;100326.47;5076799;28;20044;-79
2022/04/20 08:49:50;;;;;;;6.50;3.13;;;;;;;36.61;11.49;100320.41;5077828;28;20460;-78
2022/04/20 08:55:05;;;;;;;3.17;2.33;;;;;;;36.88;11.33;100319.31;5064731;28;20064;-79
2022/04/20 08:57:33;;;;;;;;;;;;;;;36.70;10.98;100318.22;5058461;28;20409;-78
2022/04/20 09:00:04;;;;;;;3.40;2.10;;;;;;;37.56;10.91;100321.97;5058956;28;19920;-79
2022/04/20 09:02:32;;;;;;;3.63;1.90;;;;;;;38.10;10.86;100312.94;5057138;28;20044;-79
2022/04/20 09:04:59;;;;;;;2.20;1.75;;;;;;;38.30;10.23;100311.28;5058111;28;20051;-78
2022/04/20 09:07:26;;;;;;;2.67;1.90;;;;;;;38.64;9.74;100312.47;5057915;28;20060;-79
2022/04/20 09:09:54;;;;;;;2.88;1.70;;;;;;;38.80;9.37;100319.75;5057589;28;20057;-78
2022/04/20 09:12:23;;;;;;;2.97;2.03;;;;;;;38.70;9.01;100313.31;5057157;28;20060;-78
2022/04/20 09:14:52;;;;;;;2.30;2.10;;;;;;;38.78;8.79;100311.50;5057096;28;20462;-78
2022/04/20 09:17:22;;;;;;;1.88;1.63;;;;;;;38.32;8.44;100315.28;5057045;28;20048;-78
2022/04/20 09:19:54;;;;;;;2.70;1.90;;;;;;;38.02;9.14;100303.03;5057566;28;20516;-78
2022/04/20 09:22:23;;;;;;;3.03;2.05;;;;;;;38.29;9.36;100298.84;5058066;28;20053;-79
2022/04/20 09:25:06;;;;;;;2.85;1.83;;;;;;;38.64;9.62;100300.81;5058245;28;20064;-79
2022/04/20 09:27:35;;;;;;;2.13;1.92;;;;;;;38.79;8.47;100300.69;5057228;28;20056;-79
2022/04/20 09:30:04;;;;;;;2.95;2.20;;;;;;;39.20;8.83;100290.94;5057696;28;20064;-79
2022/04/20 09:32:35;;;;;;;2.65;1.75;;;;;;;39.12;8.71;100291.44;5057603;28;20080;-79
2022/04/20 09:35:06;;;;;;;3.63;1.90;;;;;;;39.06;8.70;100299.34;5082333;28;20059;-78
2022/04/20 09:37:34;;;;;;;2.33;1.77;;;;;;;39.04;8.75;100292.41;5076804;28;20408;-78
2022/04/20 09:40:04;;;;;;;2.25;1.90;;;;;;;39.39;8.57;100290.00;5076984;28;20472;-77
2022/04/20 09:42:33;;;;;;;2.47;2.10;;;;;;;39.52;8.67;100285.84;5073667;28;20171;-78
2022/04/20 09:45:02;;;;;;;2.60;1.83;;;;;;;39.43;8.49;100278.13;5076813;28;20052;-78
2022/04/20 09:50:26;;;;;;;4.15;2.20;;;;;;;39.73;8.48;100289.41;5076826;28;20060;-78
2022/04/20 09:52:59;;;;;;;2.25;1.75;;;;;;;39.90;8.33;100274.91;5076463;28;20134;-78
2022/04/20 09:55:29;;;;;;;4.20;2.22;;;;;;;40.19;8.32;100279.50;5076723;28;20052;-80
2022/04/20 09:58:15;;;;;;;6.40;2.10;;;;;;;40.01;7.98;100274.16;5076884;28;20059;-78
2022/04/20 10:00:46;;;;;;;2.75;2.00;;;;;;;40.30;8.44;100273.72;5076193;28;20501;-79
2022/04/20 10:03:24;;;;;;;2.50;2.03;;;;;;;40.26;8.35;100267.31;5076447;28;20052;-79
2022/04/20 10:05:54;;;;;;;2.97;1.92;;;;;;;40.58;8.68;100273.75;5074626;28;20248;-78
2022/04/20 10:08:23;;;;;;;3.33;2.00;;;;;;;40.85;8.04;100265.53;5076921;28;20044;-79
2022/04/20 10:10:52;;;;;;;2.55;2.35;;;;;;;41.18;8.45;100261.81;5076209;28;20056;-78
2022/04/20 10:13:20;;;;;;;2.42;2.22;;;;;;;41.06;7.59;100260.19;5075576;28;20060;-78
2022/04/20 10:16:09;;;;;;;2.70;2.38;;;;;;;41.15;8.07;100265.78;5075342;28;20051;-78
2022/04/20 10:18:38;;;;;;;3.53;2.05;;;;;;;40.60;7.63;100261.53;5075762;28;20489;-78
2022/04/20 10:21:11;;;;;;;2.42;2.10;;;;;;;40.52;8.94;100255.41;5075906;28;20052;-78
2022/04/20 10:23:42;;;;;;;2.97;2.40;;;;;;;40.78;8.33;100254.38;5076132;28;20067;-78
2022/04/20 10:26:11;;;;;;;3.35;2.20;;;;;;;41.15;8.20;100248.25;5076518;28;20056;-78
2022/04/20 10:28:50;;;;;;;3.35;2.35;;;;;;;41.06;7.74;100242.66;5078146;28;20072;-78
2022/04/20 10:31:23;;;;;;;4.28;2.30;;;;;;;40.94;7.98;100229.41;5079374;28;20067;-78
2022/04/20 10:33:51;;;;;;;2.60;2.30;;;;;;;40.67;7.83;100243.47;5079749;28;20059;-79
2022/04/20 10:36:31;;;;;;;2.63;2.38;;;;;;;40.86;8.37;100231.28;5079549;28;20488;-79
2022/04/20 10:39:22;;;;;;;4.07;2.30;;;;;;;40.62;7.97;100229.69;5079192;28;20049;-79
2022/04/20 10:42:21;;;;;;;3.13;2.30;;;;;;;40.32;8.58;100230.22;5064757;28;20056;-79
2022/04/20 10:45:00;;;;;;;3.15;2.50;;;;;;;40.71;8.26;100229.41;5060116;28;20060;-79
2022/04/20 10:47:28;;;;;;;4.07;2.22;;;;;;;40.76;8.37;100221.97;5060672;28;20053;-78
2022/04/20 10:50:15;;;;;;;3.83;2.22;;;;;;;40.84;8.20;100214.28;5060254;28;20379;-79
2022/04/20 10:52:48;;;;;;;3.40;2.50;;;;;;;40.81;8.25;100217.50;5059131;28;20064;-79
2022/04/20 10:55:15;;;;;;;3.05;2.47;;;;;;;40.78;8.48;100213.50;5059923;28;20048;-79
2022/04/20 10:57:45;;;;;;;3.22;2.30;;;;;;;40.72;8.11;100221.44;5058941;28;20080;-79
2022/04/20 11:00:34;;;;;;;4.30;2.13;;;;;;;40.66;8.68;100211.91;5060177;28;20048;-79
2022/04/20 11:03:06;;;;;;;2.55;2.20;;;;;;;40.66;8.22;100214.81;5059018;28;20056;-79
2022/04/20 11:05:49;;;;;;;3.83;2.20;;;;;;;40.37;8.27;100214.81;5058315;28;20052;-79
2022/04/20 11:08:17;;;;;;;3.10;2.40;;;;;;;40.68;8.34;100210.03;5058867;28;20505;-80
2022/04/20 11:18:38;;;;;;;3.67;2.45;;;;;;;40.84;8.10;100205.50;5058100;28;20370;-77
2022/04/20 11:19:15;;;;;;;3.83;2.50;;;;;;;40.91;8.38;100201.25;5033964;28;20170;-79
2022/04/20 11:21:54;;;;;;;3.45;2.40;;;;;;;41.03;8.26;100202.81;5077833;28;20048;-78
2022/04/20 11:24:31;;;;;;;2.17;1.92;;;;;;;41.12;8.75;100198.84;5079371;28;20057;-78
2022/04/20 11:26:59;;;;;;;3.55;2.40;;;;;;;41.49;8.22;100203.50;5078940;28;20067;-78
2022/04/20 11:29:28;;;;;;;3.75;2.58;;;;;;;41.57;8.43;100201.59;5078972;28;20053;-78
2022/04/20 11:31:57;;;;;;;3.65;2.50;;;;;;;41.57;7.48;100201.59;5078548;28;20386;-78
2022/04/20 11:34:28;;;;;;;3.17;2.50;;;;;;;41.28;8.08;100205.97;5078240;28;20052;-78
2022/04/20 11:36:58;;;;;;;5.40;2.67;;;;;;;40.85;9.05;100200.50;5078520;28;20091;-78
2022/04/20 11:39:27;;;;;;;4.22;2.40;;;;;;;40.72;8.08;100198.06;5078087;28;20059;-78
2022/04/20 11:41:57;;;;;;;2.33;2.13;;;;;;;40.59;8.56;100198.63;5078400;28;20060;-78
2022/04/20 11:44:26;;;;;;;2.78;1.90;;;;;;;40.68;8.62;100191.72;5077587;28;20052;-78
2022/04/20 11:46:58;;;;;;;3.38;2.25;;;;;;;40.65;8.78;100186.94;5076420;28;20053;-78
2022/04/20 11:49:32;;;;;;;3.45;2.15;;;;;;;40.18;8.45;100188.25;5076047;28;20053;-78
2022/04/20 11:52:00;;;;;;;3.60;2.25;;;;;;;40.06;8.82;100180.00;5075688;28;20059;-79
2022/04/20 11:54:29;;;;;;;3.83;2.47;;;;;;;39.97;9.57;100183.97;5076844;28;20063;-79
2022/04/20 11:56:58;;;;;;;2.88;2.40;;;;;;;39.94;8.93;100170.44;5076636;28;20057;-78
2022/04/20 11:59:26;;;;;;;3.17;2.58;;;;;;;40.30;8.91;100173.69;5075963;28;20056;-78
2022/04/20 12:01:54;;;;;;;2.30;1.88;;;;;;;40.42;8.26;100162.81;5077099;28;20339;-79
2022/04/20 12:04:28;;;;;;;3.55;2.25;;;;;;;40.31;8.36;100172.38;5076803;28;20063;-79
2022/04/20 12:06:59;;;;;;;3.55;2.63;;;;;;;39.53;8.87;100165.81;5076731;28;20049;-78
2022/04/20 12:09:28;;;;;;;3.15;2.40;;;;;;;39.16;9.32;100160.88;5077432;28;20436;-78
2022/04/20 12:11:58;;;;;;;3.15;2.20;;;;;;;39.13;9.53;100166.97;5075805;28;20060;-78
2022/04/20 12:14:30;;;;;;;3.83;2.47;;;;;;;39.28;9.11;100158.81;5077812;28;20060;-79